createdAt,value
2023-01-27T00:00:19.081Z,11.83
2023-01-27T00:02:46.336Z,15.73
2023-01-27T00:05:14.324Z,12.03
2023-01-27T00:07:45.827Z,14.17
2023-01-27T00:10:15.504Z,11.97
2023-01-27T00:13:02.535Z,13.13
2023-01-27T00:15:30.182Z,13.43
2023-01-27T00:17:57.278Z,14.73
2023-01-27T00:20:43.671Z,14.80
2023-01-27T00:23:36.607Z,14.43
2023-01-27T00:26:06.759Z,14.73
2023-01-27T00:28:37.386Z,12.80
2023-01-27T00:31:04.991Z,11.63
2023-01-27T00:33:32.270Z,11.70
2023-01-27T00:36:07.602Z,13.20
2023-01-27T00:38:40.687Z,12.17
2023-01-27T00:41:20.151Z,14.20
2023-01-27T00:43:47.174Z,13.30
2023-01-27T00:46:14.335Z,13.10
2023-01-27T00:48:41.434Z,15.23
2023-01-27T00:51:08.532Z,15.23
2023-01-27T00:53:35.713Z,12.43
2023-01-27T00:56:02.826Z,17.13
2023-01-27T00:58:30.309Z,15.10
2023-01-27T01:00:59.532Z,11.23
2023-01-27T01:03:27.208Z,12.13
2023-01-27T01:05:54.251Z,11.70
2023-01-27T01:08:21.312Z,15.23
2023-01-27T01:10:48.347Z,11.67
2023-01-27T01:13:15.409Z,11.90
2023-01-27T01:15:42.774Z,12.67
2023-01-27T01:18:10.748Z,11.03
2023-01-27T01:20:38.643Z,9.97
2023-01-27T01:23:06.903Z,11.83
2023-01-27T01:25:34.356Z,16.20
2023-01-27T01:28:02.096Z,13.23
2023-01-27T01:30:29.518Z,11.63
2023-01-27T01:32:57.170Z,12.77
2023-01-27T01:35:25.163Z,11.80
2023-01-27T01:37:54.051Z,13.27
2023-01-27T01:40:22.031Z,12.87
2023-01-27T01:42:59.005Z,12.40
2023-01-27T01:45:31.989Z,10.13
2023-01-27T01:48:03.875Z,13.57
2023-01-27T01:50:31.282Z,12.13
2023-01-27T01:52:58.972Z,13.43
2023-01-27T01:55:26.276Z,11.63
2023-01-27T01:57:53.449Z,12.10
2023-01-27T02:00:20.612Z,11.03
2023-01-27T02:02:49.399Z,11.00
2023-01-27T02:05:22.626Z,13.63
2023-01-27T02:07:56.214Z,10.60
2023-01-27T02:10:23.304Z,10.13
2023-01-27T02:12:50.374Z,12.87
2023-01-27T02:15:18.090Z,11.33
2023-01-27T02:17:45.204Z,10.87
2023-01-27T02:20:15.289Z,11.53
2023-01-27T02:22:45.135Z,12.53
2023-01-27T02:25:18.935Z,9.87
2023-01-27T02:27:45.989Z,11.80
2023-01-27T02:30:13.114Z,12.93
2023-01-27T02:32:40.327Z,13.07
2023-01-27T02:35:09.541Z,13.60
2023-01-27T02:37:36.655Z,13.37
2023-01-27T02:40:04.840Z,12.37
2023-01-27T02:42:31.879Z,13.70
2023-01-27T02:44:58.980Z,13.47
2023-01-27T02:47:26.218Z,12.63
2023-01-27T02:49:54.337Z,13.13
2023-01-27T02:52:21.504Z,13.53
2023-01-27T02:54:48.637Z,18.93
2023-01-27T02:57:15.703Z,14.83
2023-01-27T02:59:42.776Z,13.83
2023-01-27T03:02:14.769Z,13.63
2023-01-27T03:04:42.001Z,14.63
2023-01-27T03:07:09.093Z,16.27
2023-01-27T03:09:36.150Z,16.20
2023-01-27T03:12:21.453Z,13.37
2023-01-27T03:15:08.301Z,15.20
2023-01-27T03:17:54.214Z,15.50
2023-01-27T03:20:22.166Z,15.13
2023-01-27T03:22:49.838Z,14.73
2023-01-27T03:25:16.976Z,12.57
2023-01-27T03:27:44.105Z,15.00
2023-01-27T03:30:11.707Z,14.10
2023-01-27T03:32:46.291Z,14.50
2023-01-27T03:35:14.630Z,15.53
2023-01-27T03:38:00.937Z,21.40
2023-01-27T03:40:46.829Z,13.50
2023-01-27T03:43:32.883Z,14.83
2023-01-27T03:46:17.031Z,17.53
2023-01-27T03:48:44.191Z,9.57
2023-01-27T03:51:11.908Z,14.87
2023-01-27T03:53:39.259Z,15.20
2023-01-27T03:56:06.766Z,12.50
2023-01-27T03:58:34.941Z,17.53
2023-01-27T04:01:02.115Z,13.53
2023-01-27T04:03:49.131Z,9.83
2023-01-27T04:06:36.584Z,18.00
2023-01-27T04:09:04.324Z,12.57
2023-01-27T04:11:49.882Z,12.23
2023-01-27T04:14:17.393Z,13.90
2023-01-27T04:16:44.713Z,15.47
2023-01-27T04:19:12.301Z,13.10
2023-01-27T04:21:39.480Z,12.17
2023-01-27T04:24:08.799Z,12.73
2023-01-27T04:26:36.134Z,11.80
2023-01-27T04:29:03.485Z,14.13
2023-01-27T04:31:32.600Z,12.10
2023-01-27T04:33:59.785Z,14.67
2023-01-27T04:36:26.851Z,12.70
2023-01-27T04:38:53.950Z,11.80
2023-01-27T04:41:21.132Z,13.60
2023-01-27T04:43:48.184Z,10.03
2023-01-27T04:46:15.295Z,8.33
2023-01-27T04:48:42.348Z,11.00
2023-01-27T04:51:09.405Z,13.50
2023-01-27T04:53:36.478Z,10.37
2023-01-27T04:56:04.959Z,13.63
2023-01-27T04:58:32.136Z,14.87
2023-01-27T05:00:59.454Z,11.97
2023-01-27T05:03:26.518Z,14.80
2023-01-27T05:05:53.635Z,13.47
2023-01-27T05:08:21.199Z,13.80
2023-01-27T05:10:48.545Z,12.37
2023-01-27T05:13:15.613Z,13.60
2023-01-27T05:15:42.770Z,14.70
2023-01-27T05:18:09.929Z,12.37
2023-01-27T05:20:36.971Z,12.07
2023-01-27T05:23:22.829Z,10.57
2023-01-27T05:25:49.879Z,14.47
2023-01-27T05:28:16.937Z,13.60
2023-01-27T05:30:44.232Z,14.17
2023-01-27T05:33:11.341Z,8.10
2023-01-27T05:35:38.406Z,11.13
2023-01-27T05:38:05.461Z,17.40
2023-01-27T05:40:32.921Z,13.53
2023-01-27T05:43:00.029Z,13.67
2023-01-27T05:45:27.136Z,14.87
2023-01-27T05:47:54.217Z,10.73
2023-01-27T05:50:21.281Z,9.97
2023-01-27T05:52:48.338Z,13.93
2023-01-27T05:55:15.829Z,11.07
2023-01-27T05:57:43.027Z,11.30
2023-01-27T06:00:10.418Z,14.07
2023-01-27T06:02:37.507Z,14.13
2023-01-27T06:05:04.656Z,10.67
2023-01-27T06:07:31.714Z,13.20
2023-01-27T06:09:58.786Z,12.83
2023-01-27T06:12:25.840Z,12.67
2023-01-27T06:14:53.508Z,12.67
2023-01-27T06:17:20.610Z,12.47
2023-01-27T06:19:47.692Z,11.67
2023-01-27T06:22:14.743Z,14.57
2023-01-27T06:24:41.805Z,15.80
2023-01-27T06:27:09.050Z,12.20
2023-01-27T06:29:36.116Z,9.97
2023-01-27T06:32:03.359Z,11.70
2023-01-27T06:34:30.473Z,11.57
2023-01-27T06:36:57.555Z,17.60
2023-01-27T06:39:24.672Z,12.40
2023-01-27T06:41:51.763Z,9.77
2023-01-27T06:44:18.821Z,15.93
2023-01-27T06:46:45.942Z,9.23
2023-01-27T06:49:13.287Z,12.10
2023-01-27T06:51:40.364Z,10.00
2023-01-27T06:54:07.447Z,11.27
2023-01-27T06:56:34.462Z,10.60
2023-01-27T06:59:01.528Z,7.13
2023-01-27T07:01:28.744Z,10.93
2023-01-27T07:03:55.840Z,8.63
2023-01-27T07:06:22.959Z,8.13
2023-01-27T07:08:51.026Z,8.00
2023-01-27T07:11:18.083Z,8.03
2023-01-27T07:13:45.275Z,6.13
2023-01-27T07:16:12.482Z,9.70
2023-01-27T07:18:39.609Z,6.33
2023-01-27T07:21:06.874Z,9.07
2023-01-27T07:23:33.958Z,9.27
2023-01-27T07:26:09.832Z,8.37
2023-01-27T07:28:39.715Z,10.23
2023-01-27T07:31:06.943Z,8.43
2023-01-27T07:33:34.053Z,11.40
2023-01-27T07:36:01.403Z,12.10
2023-01-27T07:38:28.466Z,10.17
2023-01-27T07:40:55.549Z,9.10
2023-01-27T07:43:22.657Z,9.50
2023-01-27T07:45:51.103Z,7.80
2023-01-27T07:48:18.191Z,10.37
2023-01-27T07:50:45.316Z,12.50
2023-01-27T07:53:12.425Z,10.63
2023-01-27T07:55:39.554Z,13.00
2023-01-27T07:58:06.835Z,11.33
2023-01-27T08:00:34.517Z,9.63
2023-01-27T08:03:02.292Z,10.70
2023-01-27T08:05:30.264Z,9.80
2023-01-27T08:07:59.076Z,10.63
2023-01-27T08:10:26.402Z,10.77
2023-01-27T08:12:53.600Z,10.63
2023-01-27T08:15:20.699Z,10.03
2023-01-27T08:17:57.401Z,9.20
2023-01-27T08:20:25.027Z,12.87
2023-01-27T08:22:52.294Z,8.87
2023-01-27T08:25:19.748Z,11.37
2023-01-27T08:27:49.537Z,10.10
2023-01-27T08:30:16.840Z,9.77
2023-01-27T08:32:43.900Z,9.27
2023-01-27T08:35:10.948Z,12.00
2023-01-27T08:37:38.028Z,7.43
2023-01-27T08:40:05.278Z,9.33
2023-01-27T08:42:32.347Z,7.67
2023-01-27T08:45:00.445Z,8.37
2023-01-27T08:47:27.638Z,7.23
2023-01-27T08:49:54.792Z,8.33
2023-01-27T08:52:23.330Z,8.53
2023-01-27T08:54:50.377Z,8.73
2023-01-27T08:57:17.452Z,6.23
2023-01-27T08:59:46.103Z,6.87
2023-01-27T09:02:14.410Z,7.70
2023-01-27T09:04:45.198Z,9.57
2023-01-27T09:07:12.430Z,8.37
2023-01-27T09:09:39.519Z,7.83
2023-01-27T09:12:06.679Z,10.13
2023-01-27T09:14:34.630Z,7.77
2023-01-27T09:17:01.748Z,9.23
2023-01-27T09:19:28.827Z,7.63
2023-01-27T09:21:55.943Z,8.73
2023-01-27T09:24:23.122Z,9.10
2023-01-27T09:26:50.411Z,8.57
2023-01-27T09:29:17.539Z,8.60
2023-01-27T09:31:44.738Z,7.53
2023-01-27T09:34:12.124Z,9.47
2023-01-27T09:36:43.623Z,8.30
2023-01-27T09:39:10.961Z,7.17
2023-01-27T09:41:40.755Z,9.00
2023-01-27T09:44:19.918Z,9.43
2023-01-27T09:46:59.603Z,8.23
2023-01-27T09:49:36.058Z,10.03
2023-01-27T09:52:21.741Z,7.53
2023-01-27T09:54:55.214Z,10.20
2023-01-27T09:57:25.175Z,9.10
2023-01-27T09:59:57.326Z,11.13
2023-01-27T10:02:24.358Z,8.87
2023-01-27T10:04:56.109Z,10.93
2023-01-27T10:07:31.344Z,10.00
2023-01-27T10:10:17.100Z,10.83
2023-01-27T10:12:44.137Z,9.13
2023-01-27T10:15:11.199Z,10.07
2023-01-27T10:17:38.274Z,13.27
2023-01-27T10:20:19.847Z,9.67
2023-01-27T10:22:46.880Z,12.43
2023-01-27T10:25:20.192Z,10.13
2023-01-27T10:27:53.232Z,12.43
2023-01-27T10:30:30.355Z,10.87
2023-01-27T10:32:57.415Z,11.83
2023-01-27T10:35:33.421Z,10.67
2023-01-27T10:38:21.377Z,11.60
2023-01-27T10:40:53.746Z,10.23
2023-01-27T10:43:31.408Z,15.60
2023-01-27T10:46:10.583Z,11.70
2023-01-27T10:48:46.566Z,14.17
2023-01-27T10:51:16.899Z,13.53
2023-01-27T10:54:08.708Z,11.73
2023-01-27T10:56:54.362Z,13.93
2023-01-27T10:59:24.650Z,12.03
2023-01-27T11:01:54.267Z,9.93
2023-01-27T11:04:42.935Z,13.30
2023-01-27T11:07:16.198Z,11.10
2023-01-27T11:10:03.516Z,11.83
2023-01-27T11:12:39.989Z,13.33
2023-01-27T11:15:16.612Z,13.00
2023-01-27T11:17:47.744Z,13.50
2023-01-27T11:20:31.989Z,12.50
2023-01-27T11:23:04.444Z,16.83
2023-01-27T11:25:34.564Z,13.27
2023-01-27T11:28:04.633Z,13.93
2023-01-27T11:30:37.324Z,17.83
2023-01-27T11:33:14.535Z,15.23
2023-01-27T11:35:41.593Z,17.60
2023-01-27T11:38:15.869Z,14.17
2023-01-27T11:40:43.329Z,14.13
2023-01-27T11:43:14.803Z,14.33
2023-01-27T11:45:42.353Z,15.47
2023-01-27T11:48:13.860Z,17.83
2023-01-27T11:50:41.709Z,17.17
2023-01-27T11:53:12.075Z,14.30
2023-01-27T11:55:41.286Z,16.63
2023-01-27T11:58:14.845Z,19.23
2023-01-27T12:00:45.082Z,13.73
2023-01-27T12:03:17.047Z,17.33
2023-01-27T12:05:46.882Z,23.70
2023-01-27T12:08:33.930Z,19.70
2023-01-27T12:11:17.284Z,16.87
2023-01-27T12:13:55.064Z,13.57
2023-01-27T12:16:24.018Z,20.17
2023-01-27T12:18:56.261Z,19.60
2023-01-27T12:21:34.519Z,14.83
2023-01-27T12:24:01.654Z,14.90
2023-01-27T12:26:31.293Z,14.37
2023-01-27T12:29:00.579Z,15.23
2023-01-27T12:31:29.349Z,14.67
2023-01-27T12:34:01.496Z,12.50
2023-01-27T12:36:30.349Z,16.40
2023-01-27T12:39:00.427Z,17.67
2023-01-27T12:41:33.869Z,16.03
2023-01-27T12:44:16.141Z,15.17
2023-01-27T12:46:55.243Z,13.07
2023-01-27T12:49:22.546Z,15.07
2023-01-27T12:51:52.508Z,16.63
2023-01-27T12:54:23.678Z,16.97
2023-01-27T12:56:52.044Z,20.70
2023-01-27T12:59:21.254Z,16.70
2023-01-27T13:01:58.632Z,15.67
2023-01-27T13:04:27.082Z,16.63
2023-01-27T13:07:14.475Z,15.13
2023-01-27T13:09:41.488Z,14.63
2023-01-27T13:12:17.818Z,16.00
2023-01-27T13:14:45.067Z,13.00
2023-01-27T13:17:36.431Z,15.00
2023-01-27T13:20:23.800Z,12.67
2023-01-27T13:22:54.009Z,11.20
2023-01-27T13:25:27.541Z,11.93
2023-01-27T13:27:57.246Z,15.60
2023-01-27T13:30:24.342Z,13.90
2023-01-27T13:32:53.277Z,12.83
2023-01-27T13:35:20.407Z,13.17
2023-01-27T13:37:51.948Z,13.67
2023-01-27T13:40:29.160Z,12.63
2023-01-27T13:43:08.458Z,18.00
2023-01-27T13:45:40.489Z,14.47
2023-01-27T13:48:13.559Z,13.40
2023-01-27T13:50:42.855Z,14.73
2023-01-27T13:53:15.154Z,17.20
2023-01-27T13:55:42.180Z,14.43
2023-01-27T13:58:15.748Z,15.13
2023-01-27T14:00:52.148Z,16.33
2023-01-27T14:03:19.417Z,14.83
2023-01-27T14:06:05.057Z,13.77
2023-01-27T14:08:45.257Z,14.87
2023-01-27T14:11:35.427Z,12.00
2023-01-27T14:14:22.845Z,10.47
2023-01-27T14:16:49.932Z,9.67
2023-01-27T14:19:16.947Z,12.77
2023-01-27T14:21:54.548Z,10.70
2023-01-27T14:24:24.842Z,12.47
2023-01-27T14:27:10.270Z,12.30
2023-01-27T14:29:45.807Z,12.33
2023-01-27T14:32:33.221Z,12.13
2023-01-27T14:35:18.714Z,12.87
2023-01-27T14:37:45.859Z,10.53
2023-01-27T14:40:18.903Z,9.60
2023-01-27T14:42:55.015Z,7.80
2023-01-27T14:45:38.661Z,12.00
2023-01-27T14:48:11.535Z,9.13
2023-01-27T14:50:40.502Z,8.50
2023-01-27T14:53:07.560Z,9.47
2023-01-27T14:55:53.543Z,8.13
2023-01-27T14:58:38.970Z,7.90
2023-01-27T15:01:22.969Z,8.20
2023-01-27T15:04:10.023Z,10.63
2023-01-27T15:06:44.842Z,9.93
2023-01-27T15:09:27.430Z,9.83
2023-01-27T15:11:54.546Z,12.00
2023-01-27T15:14:21.579Z,12.87
2023-01-27T15:16:48.692Z,15.73
2023-01-27T15:19:15.722Z,14.83
2023-01-27T15:22:05.781Z,14.77
2023-01-27T15:24:40.956Z,9.90
2023-01-27T15:27:09.465Z,11.10
2023-01-27T15:29:37.039Z,10.37
2023-01-27T15:32:13.195Z,10.50
2023-01-27T15:34:40.451Z,12.23
2023-01-27T15:37:10.247Z,11.90
2023-01-27T15:40:05.281Z,12.30
2023-01-27T15:42:52.795Z,12.43
2023-01-27T15:45:31.160Z,11.07
2023-01-27T15:48:02.498Z,10.83
2023-01-27T15:50:31.139Z,11.17
2023-01-27T15:53:24.525Z,11.80
2023-01-27T15:55:55.703Z,13.87
2023-01-27T15:58:35.566Z,9.53
2023-01-27T16:01:03.989Z,10.67
2023-01-27T16:03:32.641Z,12.77
2023-01-27T16:06:01.941Z,14.13
2023-01-27T16:08:32.326Z,10.63
2023-01-27T16:11:18.270Z,12.53
2023-01-27T16:13:45.335Z,11.40
2023-01-27T16:16:18.346Z,10.87
2023-01-27T16:18:52.047Z,9.53
2023-01-27T16:21:39.364Z,12.33
2023-01-27T16:24:12.854Z,13.27
2023-01-27T16:26:46.061Z,9.83
2023-01-27T16:29:13.092Z,9.80
2023-01-27T16:31:41.623Z,12.10
2023-01-27T16:34:18.039Z,21.67
2023-01-27T16:36:45.235Z,17.73
2023-01-27T16:39:18.431Z,13.07
2023-01-27T16:41:52.160Z,10.57
2023-01-27T16:44:21.181Z,9.17
2023-01-27T16:46:52.211Z,10.13
2023-01-27T16:49:22.499Z,9.17
2023-01-27T16:51:56.315Z,8.57
2023-01-27T16:54:24.891Z,9.20
2023-01-27T16:56:52.321Z,9.03
2023-01-27T16:59:22.299Z,9.60
2023-01-27T17:01:50.825Z,11.97
2023-01-27T17:04:23.306Z,9.90
2023-01-27T17:06:51.918Z,8.43
2023-01-27T17:09:26.294Z,5.93
2023-01-27T17:11:54.018Z,5.60
2023-01-27T17:14:30.810Z,8.83
2023-01-27T17:17:02.873Z,6.43
2023-01-27T17:19:37.118Z,8.03
2023-01-27T17:22:04.372Z,8.97
2023-01-27T17:24:31.500Z,8.43
2023-01-27T17:27:03.793Z,9.50
2023-01-27T17:29:34.223Z,10.87
2023-01-27T17:32:01.603Z,10.67
2023-01-27T17:34:29.087Z,11.30
2023-01-27T17:37:06.346Z,10.87
2023-01-27T17:39:33.699Z,9.90
2023-01-27T17:42:01.587Z,11.03
2023-01-27T17:44:28.722Z,10.23
2023-01-27T17:46:55.832Z,12.67
2023-01-27T17:49:22.875Z,15.53
2023-01-27T17:51:51.733Z,13.50
2023-01-27T17:54:18.762Z,17.67
2023-01-27T17:56:46.003Z,14.93
2023-01-27T17:59:16.445Z,15.47
2023-01-27T18:01:43.611Z,16.77
2023-01-27T18:04:11.121Z,13.17
2023-01-27T18:06:39.907Z,15.43
2023-01-27T18:09:15.697Z,14.10
2023-01-27T18:11:53.232Z,13.97
2023-01-27T18:14:21.103Z,12.10
2023-01-27T18:17:07.274Z,15.47
2023-01-27T18:19:34.620Z,16.17
2023-01-27T18:22:12.816Z,14.00
2023-01-27T18:24:40.627Z,15.77
2023-01-27T18:27:22.325Z,13.83
2023-01-27T18:29:51.798Z,15.47
2023-01-27T18:32:19.822Z,15.73
2023-01-27T18:34:46.969Z,19.40
2023-01-27T18:37:34.331Z,15.97
2023-01-27T18:40:02.441Z,16.90
2023-01-27T18:42:30.941Z,14.27
2023-01-27T18:44:58.549Z,16.37
2023-01-27T18:47:29.740Z,18.50
2023-01-27T18:49:56.790Z,17.53
2023-01-27T18:52:23.977Z,15.67
2023-01-27T18:54:53.955Z,17.67
2023-01-27T18:57:21.114Z,17.30
2023-01-27T18:59:48.172Z,16.33
2023-01-27T19:02:16.153Z,18.83
2023-01-27T19:04:43.863Z,16.93
2023-01-27T19:07:15.841Z,16.67
2023-01-27T19:09:43.809Z,13.93
2023-01-27T19:12:11.664Z,14.03
2023-01-27T19:14:41.450Z,12.67
2023-01-27T19:17:17.883Z,13.70
2023-01-27T19:19:44.960Z,14.77
2023-01-27T19:22:13.860Z,15.57
2023-01-27T19:24:41.238Z,15.53
2023-01-27T19:27:11.657Z,17.50
2023-01-27T19:29:38.730Z,14.93
2023-01-27T19:32:06.917Z,14.30
2023-01-27T19:34:36.287Z,14.00
2023-01-27T19:37:03.445Z,13.03
2023-01-27T19:39:30.563Z,14.17
2023-01-27T19:41:57.840Z,14.93
2023-01-27T19:44:24.907Z,13.73
2023-01-27T19:46:52.003Z,15.17
2023-01-27T19:49:19.888Z,15.40
2023-01-27T19:51:47.198Z,14.77
2023-01-27T19:54:14.316Z,16.60
2023-01-27T19:56:41.416Z,17.57
2023-01-27T19:59:10.075Z,20.03
2023-01-27T20:01:37.183Z,15.93
2023-01-27T20:04:04.370Z,18.43
2023-01-27T20:06:32.133Z,18.30
2023-01-27T20:09:00.149Z,20.87
2023-01-27T20:11:33.195Z,21.10
2023-01-27T20:14:01.075Z,19.93
2023-01-27T20:16:29.147Z,24.30
2023-01-27T20:18:56.998Z,20.73
2023-01-27T20:21:25.300Z,21.23
2023-01-27T20:23:52.541Z,20.60
2023-01-27T20:26:22.272Z,20.17
2023-01-27T20:28:49.590Z,24.53
2023-01-27T20:31:18.569Z,19.73
2023-01-27T20:33:49.874Z,25.63
2023-01-27T20:36:20.938Z,26.87
2023-01-27T20:38:48.235Z,19.60
2023-01-27T20:41:17.090Z,22.20
2023-01-27T20:43:44.325Z,21.90
2023-01-27T20:46:13.441Z,23.53
2023-01-27T20:48:40.620Z,27.57
2023-01-27T20:51:09.762Z,21.17
2023-01-27T20:53:41.520Z,25.90
2023-01-27T20:56:08.783Z,30.20
2023-01-27T20:58:35.884Z,20.07
2023-01-27T21:01:08.308Z,21.03
2023-01-27T21:03:36.071Z,26.13
2023-01-27T21:06:03.284Z,22.30
2023-01-27T21:08:30.774Z,22.43
2023-01-27T21:11:00.355Z,21.93
2023-01-27T21:13:27.922Z,18.20
2023-01-27T21:15:56.538Z,22.57
2023-01-27T21:18:24.187Z,22.00
2023-01-27T21:20:51.992Z,28.93
2023-01-27T21:23:21.382Z,23.87
2023-01-27T21:25:48.972Z,25.27
2023-01-27T21:28:16.158Z,22.97
2023-01-27T21:30:43.377Z,20.23
2023-01-27T21:33:10.610Z,20.87
2023-01-27T21:35:37.704Z,22.27
2023-01-27T21:38:04.987Z,24.83
2023-01-27T21:40:33.421Z,23.03
2023-01-27T21:43:19.288Z,18.30
2023-01-27T21:45:46.443Z,20.23
2023-01-27T21:48:14.908Z,23.47
2023-01-27T21:50:41.990Z,20.77
2023-01-27T21:53:10.682Z,21.50
2023-01-27T21:55:37.786Z,20.20
2023-01-27T21:58:04.935Z,23.40
2023-01-27T22:00:32.047Z,21.03
2023-01-27T22:03:00.432Z,20.50
2023-01-27T22:05:28.177Z,21.03
2023-01-27T22:07:55.553Z,18.80
2023-01-27T22:10:26.779Z,19.57
2023-01-27T22:12:57.917Z,20.53
2023-01-27T22:15:25.041Z,20.37
2023-01-27T22:17:52.184Z,19.77
2023-01-27T22:20:19.590Z,18.40
2023-01-27T22:22:46.759Z,22.20
2023-01-27T22:25:15.413Z,22.07
2023-01-27T22:27:43.224Z,23.67
2023-01-27T22:30:14.779Z,24.33
2023-01-27T22:32:42.228Z,21.40
2023-01-27T22:35:09.847Z,26.77
2023-01-27T22:37:37.828Z,22.40
2023-01-27T22:40:06.380Z,19.90
2023-01-27T22:42:33.590Z,20.73
2023-01-27T22:45:00.668Z,21.00
2023-01-27T22:47:27.812Z,20.70
2023-01-27T22:49:54.917Z,20.20
2023-01-27T22:52:22.053Z,25.27
2023-01-27T22:54:49.137Z,18.90
2023-01-27T22:57:16.331Z,21.20
2023-01-27T22:59:43.385Z,16.53
2023-01-27T23:02:10.470Z,17.47
2023-01-27T23:04:37.548Z,18.47
2023-01-27T23:07:04.619Z,17.07
2023-01-27T23:09:32.216Z,21.23
2023-01-27T23:11:59.287Z,18.30
2023-01-27T23:14:26.330Z,22.07
2023-01-27T23:16:53.414Z,16.80
2023-01-27T23:19:23.357Z,18.77
2023-01-27T23:21:50.555Z,24.80
2023-01-27T23:24:17.674Z,20.63
2023-01-27T23:26:44.857Z,17.97
2023-01-27T23:29:24.292Z,16.27
2023-01-27T23:31:52.712Z,25.97
2023-01-27T23:34:20.102Z,18.20
2023-01-27T23:36:48.301Z,19.20
2023-01-27T23:39:16.224Z,14.77
2023-01-27T23:41:43.304Z,11.77
2023-01-27T23:44:11.484Z,13.73
2023-01-27T23:46:38.675Z,9.90
2023-01-27T23:49:05.932Z,8.77
2023-01-27T23:51:33.028Z,10.33
2023-01-27T23:54:00.115Z,8.27
2023-01-27T23:56:27.244Z,10.13
2023-01-27T23:58:55.572Z,7.60
